Time;durP1;ratioP1;P1;durP2;ratioP2;P2;SDS_P1;SDS_P2;PMS_P1;PMS_P2;Temp;Humidity;BMP_temperature;BMP_pressure;BME280_temperature;BME280_humidity;BME280_pressure;Samples;Min_cycle;Max_cycle;Signal;HPM_P1;HPM_P2
2023/04/05 00:01:30;;;;;;;;;;;;;;;;;;4918138;29;19915;-80
2023/04/05 00:03:59;;;;;;;;;;;;;;;;;;4906486;29;19919;-80
2023/04/05 00:06:30;;;;;;;;;;;;;;;;;;4911217;29;20368;-80
2023/04/05 00:08:56;;;;;;;;;;;;;;;;;;4914543;29;19915;-80
2023/04/05 00:11:24;;;;;;;;;;;;;;;;;;4905443;29;19912;-81
2023/04/05 00:13:49;;;;;;;;;;;;;;;;;;4916698;29;19915;-80
2023/04/05 00:16:15;;;;;;;;;;;;;;;;;;4891586;29;19966;-80
2023/04/05 00:18:48;;;;;;;;;;;;;;;;;;4909968;29;19923;-79
2023/04/05 00:21:13;;;;;;;;;;;;;;;;;;4915732;29;19915;-80
2023/04/05 00:23:40;;;;;;;;;;;;;;;;;;4903694;29;19919;-80
2023/04/05 00:26:05;;;;;;;;;;;;;;;;;;4914300;29;19963;-80
2023/04/05 00:28:31;;;;;;;;;;;;;;;;;;4910465;29;19915;-80
2023/04/05 00:30:56;;;;;;;;;;;;;;;;;;4906901;29;19915;-80
2023/04/05 00:33:21;;;;;;;;;;;;;;;;;;4915697;29;20323;-80
2023/04/05 00:38:29;;;;;;;;;;;;;;;;;;5456570;23;19911;-84
2023/04/05 01:06:08;;;;;;;;;;;;;;;;;;5955277;23;19928;-83
2023/04/05 01:08:40;;;;;;;;;;;;;;;;;;4961693;28;19923;-85
2023/04/05 01:13:47;;;;;;;;;;;;;;;;;;5493997;23;19911;-84
2023/04/05 01:16:13;;;;;;;;;;;;;;;;;;5340138;23;19929;-84
2023/04/05 01:18:40;;;;;;;;;;;;;;;;;;4942495;28;19919;-85
2023/04/05 01:21:06;;;;;;;;;;;;;;;;;;4926461;29;19903;-84
2023/04/05 01:23:32;;;;;;;;;;;;;;;;;;4910586;28;19938;-84
2023/04/05 01:26:05;;;;;;;;;;;;;;;;;;4907188;29;19986;-84
2023/04/05 01:28:32;;;;;;;;;;;;;;;;;;4923146;29;19903;-84
2023/04/05 01:30:58;;;;;;;;;;;;;;;;;;4923548;29;19928;-85
2023/04/05 01:38:52;;;;;;;;;;;;;;;;;;5021100;23;19911;-85
2023/04/05 01:52:26;;;;;;;;;;;;;;;;;;5694113;23;19911;-84
2023/04/05 01:54:53;;;;;;;;;;;;;;;;;;4943162;28;19928;-85
2023/04/05 02:00:01;;;;;;;;;;;;;;;;;;5857713;23;19927;-83
2023/04/05 02:02:26;;;;;;;;;;;;;;;;;;4941169;29;19923;-83
2023/04/05 02:04:52;;;;;;;;;;;;;;;;;;4940300;29;19922;-81
2023/04/05 02:07:18;;;;;;;;;;;;;;;;;;4942081;28;19919;-84
2023/04/05 02:12:25;;;;;;;;;;;;;;;;;;5305283;23;19925;-85
2023/04/05 02:20:19;;;;;;;;;;;;;;;;;;5913515;23;19935;-85
2023/04/05 02:33:42;;;;;;;;;;;;;;;;;;5422147;23;19938;-84
2023/04/05 02:38:58;;;;;;;;;;;;;;;;;;5153383;23;19942;-86
2023/04/05 02:41:24;;;;;;;;;;;;;;;;;;4925093;29;19923;-85
2023/04/05 02:43:50;;;;;;;;;;;;;;;;;;4940484;28;19923;-84
2023/04/05 02:46:16;;;;;;;;;;;;;;;;;;4924742;28;19978;-85
2023/04/05 02:48:42;;;;;;;;;;;;;;;;;;4924723;29;19919;-83
2023/04/05 02:51:10;;;;;;;;;;;;;;;;;;4925388;28;19919;-83
2023/04/05 02:53:37;;;;;;;;;;;;;;;;;;4925293;28;19910;-84
2023/04/05 02:56:06;;;;;;;;;;;;;;;;;;4940794;28;19954;-85
2023/04/05 03:09:23;;;;;;;;;;;;;;;;;;5158609;23;19927;-84
2023/04/05 03:14:34;;;;;;;;;;;;;;;;;;5501760;23;19927;-83
2023/04/05 03:17:05;;;;;;;;;;;;;;;;;;4943423;29;19979;-83
2023/04/05 04:17:52;;;;;;;;;;;;;;;;;;5698868;23;19912;-83
2023/04/05 04:40:38;;;;;;;;;;;;;;;;;;5977627;23;19965;-82
2023/04/05 04:48:54;;;;;;;;;;;;;;;;;;5432126;23;19931;-83
2023/04/05 04:51:41;;;;;;;;;;;;;;;;;;4943802;28;19903;-83
2023/04/05 04:54:06;;;;;;;;;;;;;;;;;;4923673;29;19900;-83
2023/04/05 04:59:14;;;;;;;;;;;;;;;;;;6014597;23;20668;-80
2023/04/05 05:01:40;;;;;;;;;;;;;;;;;;4960745;28;19914;-82
2023/04/05 05:04:08;;;;;;;;;;;;;;;;;;4974953;29;19915;-84
2023/04/05 05:14:41;;;;;;;;;;;;;;;;;;5754329;23;19911;-81
2023/04/05 05:17:07;;;;;;;;;;;;;;;;;;4942962;29;19927;-83
2023/04/05 05:22:18;;;;;;;;;;;;;;;;;;5277768;23;19927;-82
2023/04/05 05:24:43;;;;;;;;;;;;;;;;;;4940789;29;19962;-80
2023/04/05 05:27:09;;;;;;;;;;;;;;;;;;4941585;29;19922;-81
2023/04/05 05:34:58;;;;;;;;;;;;;;;;;;5344759;23;19911;-80
2023/04/05 05:37:23;;;;;;;;;;;;;;;;;;4926469;28;19938;-82
2023/04/05 05:39:49;;;;;;;;;;;;;;;;;;5163974;23;19925;-83
2023/04/05 05:42:15;;;;;;;;;;;;;;;;;;4964974;28;19925;-82
2023/04/05 05:44:41;;;;;;;;;;;;;;;;;;4971058;28;19927;-83
2023/04/05 05:47:07;;;;;;;;;;;;;;;;;;4961981;28;19910;-82
2023/04/05 05:54:57;;;;;;;;;;;;;;;;;;5071415;23;19911;-83
2023/04/05 05:57:22;;;;;;;;;;;;;;;;;;4942500;28;19951;-84
2023/04/05 05:59:47;;;;;;;;;;;;;;;;;;4942051;28;19915;-81
2023/04/05 06:02:16;;;;;;;;;;;;;;;;;;5085514;23;19934;-84
2023/04/05 06:09:51;;;;;;;;;;;;;;;;;;5114942;23;19927;-83
2023/04/05 06:12:16;;;;;;;;;;;;;;;;;;4942223;28;19919;-83
2023/04/05 06:14:42;;;;;;;;;;;;;;;;;;4942267;28;19903;-85
2023/04/05 06:17:07;;;;;;;;;;;;;;;;;;4908243;29;19918;-82
2023/04/05 06:19:33;;;;;;;;;;;;;;;;;;4909062;29;19919;-81
2023/04/05 06:22:00;;;;;;;;;;;;;;;;;;4923542;28;19946;-82
2023/04/05 06:24:26;;;;;;;;;;;;;;;;;;4926490;28;19903;-83
2023/04/05 06:26:51;;;;;;;;;;;;;;;;;;4926467;29;19919;-84
2023/04/05 06:29:17;;;;;;;;;;;;;;;;;;4926179;29;19927;-84
2023/04/05 06:37:06;;;;;;;;;;;;;;;;;;5234751;23;19927;-83
2023/04/05 06:39:35;;;;;;;;;;;;;;;;;;4918549;29;19916;-83
2023/04/05 06:42:01;;;;;;;;;;;;;;;;;;4905979;29;19922;-83
2023/04/05 06:44:36;;;;;;;;;;;;;;;;;;4902536;29;19935;-84
2023/04/05 06:47:03;;;;;;;;;;;;;;;;;;4886905;29;19927;-84
2023/04/05 06:49:29;;;;;;;;;;;;;;;;;;4886881;29;19927;-84
2023/04/05 06:54:37;;;;;;;;;;;;;;;;;;5384143;23;19919;-84
2023/04/05 06:57:03;;;;;;;;;;;;;;;;;;4941574;28;19974;-84
2023/04/05 06:59:28;;;;;;;;;;;;;;;;;;5490986;23;19918;-84
2023/04/05 07:01:54;;;;;;;;;;;;;;;;;;5109864;23;19912;-83
2023/04/05 07:04:20;;;;;;;;;;;;;;;;;;4907118;29;19910;-83
2023/04/05 07:09:29;;;;;;;;;;;;;;;;;;5688473;23;19914;-86
2023/04/05 07:11:56;;;;;;;;;;;;;;;;;;4978180;28;20448;-84
2023/04/05 07:14:21;;;;;;;;;;;;;;;;;;4971220;29;19899;-83
2023/04/05 07:16:46;;;;;;;;;;;;;;;;;;4955940;29;19934;-82
2023/04/05 07:19:12;;;;;;;;;;;;;;;;;;4935350;29;19918;-83
2023/04/05 07:21:37;;;;;;;;;;;;;;;;;;4935968;29;19946;-83
2023/04/05 07:24:03;;;;;;;;;;;;;;;;;;4931429;29;19921;-83
2023/04/05 07:26:29;;;;;;;;;;;;;;;;;;4939802;29;19927;-83
2023/04/05 07:28:55;;;;;;;;;;;;;;;;;;4909059;28;19899;-82
2023/04/05 07:31:21;;;;;;;;;;;;;;;;;;4925179;29;19908;-85
2023/04/05 07:33:46;;;;;;;;;;;;;;;;;;4925339;28;19954;-84
2023/04/05 07:38:53;;;;;;;;;;;;;;;;;;5362893;23;19927;-84
2023/04/05 07:41:19;;;;;;;;;;;;;;;;;;4904096;29;19919;-82
2023/04/05 07:43:44;;;;;;;;;;;;;;;;;;4911715;29;19919;-79
2023/04/05 07:46:10;;;;;;;;;;;;;;;;;;4897762;29;19923;-82
2023/04/05 07:48:35;;;;;;;;;;;;;;;;;;4904709;29;19922;-81
2023/04/05 07:51:00;;;;;;;;;;;;;;;;;;4912792;29;19915;-81
2023/04/05 07:53:26;;;;;;;;;;;;;;;;;;4914953;29;19984;-82
2023/04/05 07:55:52;;;;;;;;;;;;;;;;;;4912814;29;20379;-83
2023/04/05 07:58:18;;;;;;;;;;;;;;;;;;4892058;29;19923;-82
2023/04/05 08:00:43;;;;;;;;;;;;;;;;;;4906701;29;20241;-82
2023/04/05 08:03:09;;;;;;;;;;;;;;;;;;4882075;29;19923;-82
2023/04/05 08:05:34;;;;;;;;;;;;;;;;;;4901553;29;19908;-82
2023/04/05 08:08:03;;;;;;;;;;;;;;;;;;4918233;29;19904;-81
2023/04/05 08:10:29;;;;;;;;;;;;;;;;;;4921329;29;19952;-83
2023/04/05 08:12:54;;;;;;;;;;;;;;;;;;4920887;29;19970;-83
2023/04/05 08:15:20;;;;;;;;;;;;;;;;;;4902189;29;19947;-84
2023/04/05 08:17:45;;;;;;;;;;;;;;;;;;4901564;29;19996;-83
2023/04/05 08:20:10;;;;;;;;;;;;;;;;;;4897382;29;19915;-83
2023/04/05 08:22:36;;;;;;;;;;;;;;;;;;4906782;29;19919;-83
2023/04/05 08:25:01;;;;;;;;;;;;;;;;;;4903654;29;19916;-83
2023/04/05 08:27:27;;;;;;;;;;;;;;;;;;4915039;29;19920;-83
2023/04/05 08:29:52;;;;;;;;;;;;;;;;;;4895329;29;19923;-83
2023/04/05 08:32:18;;;;;;;;;;;;;;;;;;4904374;29;19916;-83
2023/04/05 08:34:43;;;;;;;;;;;;;;;;;;4916468;29;20387;-81
2023/04/05 08:37:08;;;;;;;;;;;;;;;;;;4891276;29;19926;-81
2023/04/05 08:39:34;;;;;;;;;;;;;;;;;;4904350;29;19919;-83
2023/04/05 08:42:00;;;;;;;;;;;;;;;;;;4887852;29;19915;-82
2023/04/05 08:44:26;;;;;;;;;;;;;;;;;;4906847;29;19939;-82
2023/04/05 08:46:51;;;;;;;;;;;;;;;;;;4892337;29;20302;-82
2023/04/05 08:49:16;;;;;;;;;;;;;;;;;;4906295;29;20006;-84
2023/04/05 08:51:42;;;;;;;;;;;;;;;;;;4909920;29;19954;-83
2023/04/05 08:54:08;;;;;;;;;;;;;;;;;;4915974;29;19915;-84
2023/04/05 08:56:33;;;;;;;;;;;;;;;;;;4916226;29;19926;-83
2023/04/05 08:58:59;;;;;;;;;;;;;;;;;;4921491;29;19923;-83
2023/04/05 09:01:25;;;;;;;;;;;;;;;;;;5090807;23;20682;-82
2023/04/05 09:03:50;;;;;;;;;;;;;;;;;;4941538;29;20041;-83
2023/04/05 09:06:16;;;;;;;;;;;;;;;;;;4942784;29;19963;-81
2023/04/05 09:08:41;;;;;;;;;;;;;;;;;;4934782;28;19915;-81
2023/04/05 09:11:07;;;;;;;;;;;;;;;;;;4924009;28;20072;-81
2023/04/05 09:13:35;;;;;;;;;;;;;;;;;;4924152;29;19911;-81
2023/04/05 09:16:01;;;;;;;;;;;;;;;;;;4923288;29;19923;-83
2023/04/05 09:18:26;;;;;;;;;;;;;;;;;;4916824;29;19916;-84
2023/04/05 09:20:55;;;;;;;;;;;;;;;;;;4919012;29;19922;-82
2023/04/05 09:23:21;;;;;;;;;;;;;;;;;;4919132;29;19924;-82
2023/04/05 09:25:51;;;;;;;;;;;;;;;;;;4922781;29;19904;-83
2023/04/05 09:28:17;;;;;;;;;;;;;;;;;;4920788;29;19919;-82
2023/04/05 09:30:42;;;;;;;;;;;;;;;;;;4920227;29;19915;-83
2023/04/05 09:33:11;;;;;;;;;;;;;;;;;;4913629;29;19916;-83
2023/04/05 09:35:36;;;;;;;;;;;;;;;;;;4918946;29;19915;-83
2023/04/05 09:38:02;;;;;;;;;;;;;;;;;;4920179;29;19931;-82
2023/04/05 09:40:28;;;;;;;;;;;;;;;;;;4918969;29;19915;-82
2023/04/05 09:42:54;;;;;;;;;;;;;;;;;;4918242;29;19911;-83
2023/04/05 09:45:19;;;;;;;;;;;;;;;;;;4897938;29;20070;-87
2023/04/05 09:47:50;;;;;;;;;;;;;;;;;;4910990;29;19916;-86
2023/04/05 09:50:16;;;;;;;;;;;;;;;;;;4925918;29;19919;-83
2023/04/05 09:52:41;;;;;;;;;;;;;;;;;;4919118;29;19916;-84
2023/04/05 09:55:07;;;;;;;;;;;;;;;;;;4917318;29;19967;-87
2023/04/05 09:57:32;;;;;;;;;;;;;;;;;;4891400;29;19919;-85
2023/04/05 09:59:58;;;;;;;;;;;;;;;;;;4911448;29;20025;-84
2023/04/05 10:02:23;;;;;;;;;;;;;;;;;;4916506;29;19919;-83
2023/04/05 10:04:49;;;;;;;;;;;;;;;;;;4888540;29;19951;-85
2023/04/05 10:07:14;;;;;;;;;;;;;;;;;;4923093;29;20283;-86
2023/04/05 10:09:40;;;;;;;;;;;;;;;;;;4918358;29;19948;-84
2023/04/05 10:12:05;;;;;;;;;;;;;;;;;;4926208;29;19927;-83
2023/04/05 10:14:31;;;;;;;;;;;;;;;;;;4916018;29;19998;-86
2023/04/05 10:16:56;;;;;;;;;;;;;;;;;;4917267;29;19920;-86
2023/04/05 10:19:21;;;;;;;;;;;;;;;;;;4911382;29;20303;-81
2023/04/05 10:21:47;;;;;;;;;;;;;;;;;;4903979;29;19951;-81
2023/04/05 10:24:12;;;;;;;;;;;;;;;;;;4897205;29;20443;-86
2023/04/05 10:26:38;;;;;;;;;;;;;;;;;;4901366;29;20166;-85
2023/04/05 10:29:03;;;;;;;;;;;;;;;;;;4909759;29;19919;-87
2023/04/05 10:31:28;;;;;;;;;;;;;;;;;;4893948;29;20379;-87
2023/04/05 10:33:54;;;;;;;;;;;;;;;;;;4901521;29;19915;-88
2023/04/05 10:36:19;;;;;;;;;;;;;;;;;;4911882;29;19923;-82
2023/04/05 10:38:45;;;;;;;;;;;;;;;;;;4906943;29;19921;-80
2023/04/05 10:41:10;;;;;;;;;;;;;;;;;;4887983;29;19911;-79
2023/04/05 10:43:35;;;;;;;;;;;;;;;;;;4914162;29;19919;-81
2023/04/05 10:46:01;;;;;;;;;;;;;;;;;;4900300;29;20075;-79
2023/04/05 10:48:26;;;;;;;;;;;;;;;;;;4909972;29;20025;-78
2023/04/05 10:50:52;;;;;;;;;;;;;;;;;;4906772;29;19915;-78
2023/04/05 10:53:17;;;;;;;;;;;;;;;;;;4902634;29;19959;-79
2023/04/05 10:55:42;;;;;;;;;;;;;;;;;;4912715;29;19915;-80
2023/04/05 10:58:08;;;;;;;;;;;;;;;;;;4883234;29;19967;-77
2023/04/05 11:00:33;;;;;;;;;;;;;;;;;;4907632;29;19915;-82
2023/04/05 11:02:59;;;;;;;;;;;;;;;;;;4935169;29;19947;-84
2023/04/05 11:05:24;;;;;;;;;;;;;;;;;;4931226;29;19915;-82
2023/04/05 11:07:50;;;;;;;;;;;;;;;;;;4914461;29;19961;-82
2023/04/05 11:10:15;;;;;;;;;;;;;;;;;;4916094;29;19940;-81
2023/04/05 11:12:41;;;;;;;;;;;;;;;;;;4906694;29;19912;-83
2023/04/05 11:15:06;;;;;;;;;;;;;;;;;;4914248;29;19922;-82
2023/04/05 11:17:32;;;;;;;;;;;;;;;;;;4911709;29;19926;-83
2023/04/05 11:19:57;;;;;;;;;;;;;;;;;;4927571;29;19931;-83
2023/04/05 11:22:23;;;;;;;;;;;;;;;;;;4909967;29;19916;-82
2023/04/05 11:24:48;;;;;;;;;;;;;;;;;;4920200;29;19926;-82
2023/04/05 11:27:14;;;;;;;;;;;;;;;;;;4888049;29;19922;-81
2023/04/05 11:29:39;;;;;;;;;;;;;;;;;;4915284;29;19951;-82
2023/04/05 11:32:05;;;;;;;;;;;;;;;;;;4920079;29;19915;-84
2023/04/05 11:34:30;;;;;;;;;;;;;;;;;;4927697;29;19978;-81
2023/04/05 11:36:59;;;;;;;;;;;;;;;;;;4914817;29;19919;-82
2023/04/05 11:39:24;;;;;;;;;;;;;;;;;;4913742;29;19915;-83
2023/04/05 11:41:50;;;;;;;;;;;;;;;;;;4928211;29;20006;-83
2023/04/05 11:44:16;;;;;;;;;;;;;;;;;;4907551;29;19919;-82
2023/04/05 11:46:41;;;;;;;;;;;;;;;;;;4937052;29;19915;-81
2023/04/05 11:49:07;;;;;;;;;;;;;;;;;;4921588;29;19971;-86
2023/04/05 11:51:32;;;;;;;;;;;;;;;;;;4901474;29;19998;-88
2023/04/05 11:53:57;;;;;;;;;;;;;;;;;;4902292;29;20316;-85
2023/04/05 11:56:23;;;;;;;;;;;;;;;;;;4912335;29;19920;-89
2023/04/05 11:58:48;;;;;;;;;;;;;;;;;;4892469;29;19915;-87
2023/04/05 12:01:14;;;;;;;;;;;;;;;;;;4906904;29;19915;-87
2023/04/05 12:03:40;;;;;;;;;;;;;;;;;;4900869;29;20344;-89
2023/04/05 12:06:05;;;;;;;;;;;;;;;;;;4914880;29;19919;-85
2023/04/05 12:08:31;;;;;;;;;;;;;;;;;;4907206;29;19915;-87
2023/04/05 12:10:56;;;;;;;;;;;;;;;;;;4909611;29;19922;-83
2023/04/05 12:13:21;;;;;;;;;;;;;;;;;;4897134;29;20267;-83
2023/04/05 12:15:47;;;;;;;;;;;;;;;;;;4909066;29;19915;-83
2023/04/05 12:18:13;;;;;;;;;;;;;;;;;;4916270;29;19927;-82
2023/04/05 12:20:39;;;;;;;;;;;;;;;;;;4888202;29;19922;-85
2023/04/05 12:23:04;;;;;;;;;;;;;;;;;;4908899;29;19919;-85
2023/04/05 12:25:30;;;;;;;;;;;;;;;;;;4913004;29;19916;-85
2023/04/05 12:27:55;;;;;;;;;;;;;;;;;;4900640;29;20443;-86
2023/04/05 12:30:21;;;;;;;;;;;;;;;;;;4912840;29;20345;-84
2023/04/05 12:32:46;;;;;;;;;;;;;;;;;;4916968;29;19915;-83
2023/04/05 12:35:12;;;;;;;;;;;;;;;;;;5190175;23;20847;-84
2023/04/05 12:37:37;;;;;;;;;;;;;;;;;;4942749;28;19918;-84
2023/04/05 12:40:03;;;;;;;;;;;;;;;;;;4906830;29;19958;-83
2023/04/05 12:42:29;;;;;;;;;;;;;;;;;;4926613;28;19914;-82
2023/04/05 12:45:03;;;;;;;;;;;;;;;;;;4967041;23;19911;-83
2023/04/05 12:47:30;;;;;;;;;;;;;;;;;;4965742;28;19922;-82
2023/04/05 12:50:06;;;;;;;;;;;;;;;;;;4974614;23;19950;-83
2023/04/05 12:52:33;;;;;;;;;;;;;;;;;;4942377;28;19903;-83
2023/04/05 12:55:21;;;;;;;;;;;;;;;;;;4909912;29;20025;-83
2023/04/05 12:57:47;;;;;;;;;;;;;;;;;;4920141;29;19923;-82
2023/04/05 13:00:18;;;;;;;;;;;;;;;;;;4919078;29;19910;-83
2023/04/05 13:02:49;;;;;;;;;;;;;;;;;;4935212;29;19900;-83
2023/04/05 13:05:24;;;;;;;;;;;;;;;;;;4920204;29;19899;-83
2023/04/05 13:07:53;;;;;;;;;;;;;;;;;;4921516;29;19915;-83
2023/04/05 13:10:20;;;;;;;;;;;;;;;;;;4920611;29;19978;-83
2023/04/05 13:12:58;;;;;;;;;;;;;;;;;;4923985;29;20006;-82
2023/04/05 13:15:24;;;;;;;;;;;;;;;;;;4882867;29;19926;-81
2023/04/05 13:17:52;;;;;;;;;;;;;;;;;;4864297;29;19920;-83
2023/04/05 13:20:20;;;;;;;;;;;;;;;;;;4864988;29;19927;-81
2023/04/05 13:22:46;;;;;;;;;;;;;;;;;;4863125;29;19916;-81
2023/04/05 13:25:15;;;;;;;;;;;;;;;;;;4909112;29;19916;-82
2023/04/05 13:27:41;;;;;;;;;;;;;;;;;;4896343;29;19922;-81
2023/04/05 13:30:08;;;;;;;;;;;;;;;;;;4895032;29;19988;-81
2023/04/05 13:32:33;;;;;;;;;;;;;;;;;;4924876;29;19916;-81
2023/04/05 13:34:59;;;;;;;;;;;;;;;;;;4905798;29;19916;-80
2023/04/05 13:37:25;;;;;;;;;;;;;;;;;;4904558;29;19983;-82
2023/04/05 13:39:51;;;;;;;;;;;;;;;;;;4892913;29;19951;-81
2023/04/05 13:42:17;;;;;;;;;;;;;;;;;;4901932;29;19915;-81
2023/04/05 13:44:42;;;;;;;;;;;;;;;;;;4889859;29;19916;-82
2023/04/05 13:47:09;;;;;;;;;;;;;;;;;;4916429;29;19916;-82
2023/04/05 13:49:35;;;;;;;;;;;;;;;;;;4926050;29;19976;-82
2023/04/05 13:52:01;;;;;;;;;;;;;;;;;;4927666;29;19926;-82
2023/04/05 13:54:27;;;;;;;;;;;;;;;;;;4913396;29;19955;-82
2023/04/05 13:56:59;;;;;;;;;;;;;;;;;;4904596;29;19961;-81
2023/04/05 13:59:30;;;;;;;;;;;;;;;;;;4894914;29;19912;-82
2023/04/05 14:01:56;;;;;;;;;;;;;;;;;;4901243;29;19919;-82
2023/04/05 14:04:24;;;;;;;;;;;;;;;;;;4917510;29;19916;-81
2023/04/05 14:06:50;;;;;;;;;;;;;;;;;;4910970;29;19911;-83
2023/04/05 14:09:20;;;;;;;;;;;;;;;;;;4903616;29;19916;-82
2023/04/05 14:11:57;;;;;;;;;;;;;;;;;;4901779;29;19923;-83
2023/04/05 14:14:23;;;;;;;;;;;;;;;;;;4886759;29;19915;-82
2023/04/05 14:16:50;;;;;;;;;;;;;;;;;;4901382;29;19966;-81
2023/04/05 14:19:18;;;;;;;;;;;;;;;;;;4916898;29;19944;-83
2023/04/05 14:21:45;;;;;;;;;;;;;;;;;;4919765;29;19923;-82
2023/04/05 14:24:14;;;;;;;;;;;;;;;;;;4913567;29;19953;-83
2023/04/05 14:27:04;;;;;;;;;;;;;;;;;;4915858;29;19922;-82
2023/04/05 14:29:48;;;;;;;;;;;;;;;;;;4903291;29;19900;-84
2023/04/05 14:32:20;;;;;;;;;;;;;;;;;;4915846;29;19998;-83
2023/04/05 14:34:46;;;;;;;;;;;;;;;;;;4917310;29;19943;-82
2023/04/05 14:37:13;;;;;;;;;;;;;;;;;;4902571;29;19910;-81
2023/04/05 14:40:00;;;;;;;;;;;;;;;;;;4916529;29;19951;-82
2023/04/05 14:42:34;;;;;;;;;;;;;;;;;;4919672;29;19991;-84
2023/04/05 14:45:03;;;;;;;;;;;;;;;;;;4912019;29;19920;-83
2023/04/05 14:47:37;;;;;;;;;;;;;;;;;;4898823;29;19916;-82
2023/04/05 14:50:06;;;;;;;;;;;;;;;;;;4889831;29;19971;-82
2023/04/05 14:52:36;;;;;;;;;;;;;;;;;;4902410;29;19916;-83
2023/04/05 14:55:12;;;;;;;;;;;;;;;;;;4916842;29;19916;-82
2023/04/05 14:57:39;;;;;;;;;;;;;;;;;;4916914;29;19995;-83
2023/04/05 15:00:07;;;;;;;;;;;;;;;;;;4900386;29;19916;-83
2023/04/05 15:02:34;;;;;;;;;;;;;;;;;;4885394;29;19988;-83
2023/04/05 15:05:03;;;;;;;;;;;;;;;;;;4910713;29;20010;-81
2023/04/05 15:07:31;;;;;;;;;;;;;;;;;;4914870;29;20399;-81
2023/04/05 15:10:01;;;;;;;;;;;;;;;;;;4919550;29;19904;-82
2023/04/05 15:12:41;;;;;;;;;;;;;;;;;;4919649;29;19922;-83
2023/04/05 15:15:16;;;;;;;;;;;;;;;;;;4903439;29;19915;-83
2023/04/05 15:17:45;;;;;;;;;;;;;;;;;;4888840;29;19987;-83
2023/04/05 15:20:18;;;;;;;;;;;;;;;;;;4903797;29;20009;-83
2023/04/05 15:22:49;;;;;;;;;;;;;;;;;;4906849;29;19922;-84
2023/04/05 15:25:19;;;;;;;;;;;;;;;;;;4906861;29;19899;-83
2023/04/05 15:27:53;;;;;;;;;;;;;;;;;;4892179;29;19998;-84
2023/04/05 15:30:20;;;;;;;;;;;;;;;;;;4911450;29;19901;-80
2023/04/05 15:32:49;;;;;;;;;;;;;;;;;;4894848;29;19911;-83
2023/04/05 15:35:26;;;;;;;;;;;;;;;;;;4889851;29;19904;-83
2023/04/05 15:38:00;;;;;;;;;;;;;;;;;;4923985;29;19953;-84
2023/04/05 15:40:44;;;;;;;;;;;;;;;;;;4903801;29;19926;-83
2023/04/05 15:43:16;;;;;;;;;;;;;;;;;;4914474;29;19979;-79
2023/04/05 15:45:42;;;;;;;;;;;;;;;;;;4896627;29;19915;-80
2023/04/05 15:48:07;;;;;;;;;;;;;;;;;;4875952;29;19916;-80
2023/04/05 15:50:33;;;;;;;;;;;;;;;;;;4896713;29;19949;-80
2023/04/05 15:52:59;;;;;;;;;;;;;;;;;;4897486;29;19926;-81
2023/04/05 15:55:24;;;;;;;;;;;;;;;;;;4918518;29;20049;-81
2023/04/05 15:57:53;;;;;;;;;;;;;;;;;;4918912;29;19919;-82
2023/04/05 16:00:26;;;;;;;;;;;;;;;;;;4889519;29;19920;-81
2023/04/05 16:02:54;;;;;;;;;;;;;;;;;;4897187;29;19915;-80
2023/04/05 16:05:20;;;;;;;;;;;;;;;;;;4878334;29;20384;-80
2023/04/05 16:07:51;;;;;;;;;;;;;;;;;;4915763;29;20091;-81
2023/04/05 16:10:22;;;;;;;;;;;;;;;;;;4913551;29;19916;-81
2023/04/05 16:12:56;;;;;;;;;;;;;;;;;;4894177;29;19920;-80
2023/04/05 16:15:32;;;;;;;;;;;;;;;;;;;;;
2023/04/05 16:18:13;;;;;;;;;;;;;;;;;;4891715;29;19927;-82
2023/04/05 16:21:00;;;;;;;;;;;;;;;;;;4910424;29;19980;-83
2023/04/05 16:23:41;;;;;;;;;;;;;;;;;;4900083;29;19916;-83
2023/04/05 16:26:17;;;;;;;;;;;;;;;;;;4884920;29;19945;-82
2023/04/05 16:28:46;;;;;;;;;;;;;;;;;;4889317;29;19987;-79
2023/04/05 16:31:12;;;;;;;;;;;;;;;;;;4868526;29;19971;-80
2023/04/05 16:33:38;;;;;;;;;;;;;;;;;;4913839;29;19915;-81
2023/04/05 16:36:04;;;;;;;;;;;;;;;;;;4900460;29;20026;-81
2023/04/05 16:38:33;;;;;;;;;;;;;;;;;;4900720;29;19919;-81
2023/04/05 16:41:04;;;;;;;;;;;;;;;;;;4917104;29;19915;-81
2023/04/05 16:43:30;;;;;;;;;;;;;;;;;;4910915;29;19916;-82
2023/04/05 16:45:56;;;;;;;;;;;;;;;;;;4899347;29;19943;-81
2023/04/05 16:48:22;;;;;;;;;;;;;;;;;;4895596;29;19986;-81
2023/04/05 16:50:51;;;;;;;;;;;;;;;;;;4905322;29;19926;-79
2023/04/05 16:53:27;;;;;;;;;;;;;;;;;;4900132;29;19984;-81
2023/04/05 16:55:58;;;;;;;;;;;;;;;;;;4911551;29;19924;-80
2023/04/05 16:58:26;;;;;;;;;;;;;;;;;;4910224;29;19995;-81
2023/04/05 17:00:57;;;;;;;;;;;;;;;;;;4908119;29;20151;-81
2023/04/05 17:03:23;;;;;;;;;;;;;;;;;;4878825;29;19986;-80
2023/04/05 17:05:49;;;;;;;;;;;;;;;;;;4887295;29;20324;-81
2023/04/05 17:08:17;;;;;;;;;;;;;;;;;;4900610;29;19955;-80
2023/04/05 17:10:48;;;;;;;;;;;;;;;;;;4908483;29;20006;-79
2023/04/05 17:13:14;;;;;;;;;;;;;;;;;;4889391;29;19916;-80
2023/04/05 17:15:40;;;;;;;;;;;;;;;;;;4903599;29;19922;-81
2023/04/05 17:18:15;;;;;;;;;;;;;;;;;;4888754;29;19920;-81
2023/04/05 17:20:44;;;;;;;;;;;;;;;;;;4898629;29;20010;-81
2023/04/05 17:23:09;;;;;;;;;;;;;;;;;;4888553;29;19951;-81
2023/04/05 17:25:35;;;;;;;;;;;;;;;;;;4903481;29;19920;-79
2023/04/05 17:28:02;;;;;;;;;;;;;;;;;;4904360;29;19912;-81
2023/04/05 17:30:28;;;;;;;;;;;;;;;;;;4860504;29;19923;-82
2023/04/05 17:32:54;;;;;;;;;;;;;;;;;;4872886;29;19912;-80
2023/04/05 17:35:26;;;;;;;;;;;;;;;;;;4907590;29;19915;-81
2023/04/05 17:37:58;;;;;;;;;;;;;;;;;;4890854;29;19944;-80
2023/04/05 17:40:29;;;;;;;;;;;;;;;;;;4877599;29;19971;-82
2023/04/05 17:42:55;;;;;;;;;;;;;;;;;;4859345;29;19916;-81
2023/04/05 17:45:26;;;;;;;;;;;;;;;;;;4903709;29;19916;-81
2023/04/05 17:47:52;;;;;;;;;;;;;;;;;;4901871;29;19967;-79
2023/04/05 17:50:26;;;;;;;;;;;;;;;;;;4888992;29;19984;-81
2023/04/05 17:52:51;;;;;;;;;;;;;;;;;;4889510;29;19976;-82
2023/04/05 17:55:20;;;;;;;;;;;;;;;;;;4906586;29;20007;-79
2023/04/05 17:57:45;;;;;;;;;;;;;;;;;;4889129;29;19965;-81
2023/04/05 18:00:11;;;;;;;;;;;;;;;;;;4888989;29;19922;-80
2023/04/05 18:02:49;;;;;;;;;;;;;;;;;;4913088;29;19979;-82
2023/04/05 18:05:18;;;;;;;;;;;;;;;;;;4909660;29;19916;-80
2023/04/05 18:07:44;;;;;;;;;;;;;;;;;;4891546;29;19915;-81
2023/04/05 18:10:10;;;;;;;;;;;;;;;;;;4904014;29;19915;-81
2023/04/05 18:12:36;;;;;;;;;;;;;;;;;;4873604;29;19927;-82
2023/04/05 18:15:02;;;;;;;;;;;;;;;;;;4868744;29;19950;-80
2023/04/05 18:17:28;;;;;;;;;;;;;;;;;;4922955;29;19920;-80
2023/04/05 18:19:54;;;;;;;;;;;;;;;;;;4906036;29;19922;-81
2023/04/05 18:22:22;;;;;;;;;;;;;;;;;;4905357;29;19991;-80
2023/04/05 18:24:51;;;;;;;;;;;;;;;;;;4889511;29;20007;-81
2023/04/05 18:27:16;;;;;;;;;;;;;;;;;;4910404;29;19915;-82
2023/04/05 18:29:44;;;;;;;;;;;;;;;;;;4877231;29;19983;-82
2023/04/05 18:32:10;;;;;;;;;;;;;;;;;;4889605;29;19916;-81
2023/04/05 18:34:36;;;;;;;;;;;;;;;;;;4889628;29;19924;-81
2023/04/05 18:37:03;;;;;;;;;;;;;;;;;;4933895;23;20022;-86
2023/04/05 18:39:28;;;;;;;;;;;;;;;;;;4910003;29;20294;-83
2023/04/05 18:41:53;;;;;;;;;;;;;;;;;;4917772;29;20387;-81
2023/04/05 18:44:19;;;;;;;;;;;;;;;;;;4907279;29;20295;-84
2023/04/05 18:46:44;;;;;;;;;;;;;;;;;;4921793;29;19922;-85
2023/04/05 18:49:10;;;;;;;;;;;;;;;;;;4913996;29;20340;-83
2023/04/05 18:51:35;;;;;;;;;;;;;;;;;;4920469;29;19923;-81
2023/04/05 18:54:02;;;;;;;;;;;;;;;;;;4910799;29;19915;-81
2023/04/05 18:56:27;;;;;;;;;;;;;;;;;;4926129;29;19915;-80
2023/04/05 18:58:52;;;;;;;;;;;;;;;;;;4897612;29;19920;-82
2023/04/05 19:01:18;;;;;;;;;;;;;;;;;;4910030;29;20018;-80
2023/04/05 19:03:44;;;;;;;;;;;;;;;;;;4916483;29;19963;-82
2023/04/05 19:06:10;;;;;;;;;;;;;;;;;;4888284;29;19923;-85
2023/04/05 19:08:35;;;;;;;;;;;;;;;;;;4872201;29;19916;-83
2023/04/05 19:11:01;;;;;;;;;;;;;;;;;;4902064;29;19922;-85
2023/04/05 19:13:26;;;;;;;;;;;;;;;;;;4910712;29;19919;-85
2023/04/05 19:15:52;;;;;;;;;;;;;;;;;;4913455;29;20303;-84
2023/04/05 19:18:19;;;;;;;;;;;;;;;;;;4901869;29;20287;-82
2023/04/05 19:20:45;;;;;;;;;;;;;;;;;;4906188;29;20395;-84
2023/04/05 19:23:10;;;;;;;;;;;;;;;;;;4911660;29;19972;-85
2023/04/05 19:25:36;;;;;;;;;;;;;;;;;;4900725;29;20291;-85
2023/04/05 19:28:01;;;;;;;;;;;;;;;;;;4907168;29;20303;-84
2023/04/05 19:30:27;;;;;;;;;;;;;;;;;;4928983;29;19915;-84
2023/04/05 19:32:55;;;;;;;;;;;;;;;;;;4923542;29;19910;-83
2023/04/05 19:35:21;;;;;;;;;;;;;;;;;;4887850;29;19960;-81
2023/04/05 19:37:46;;;;;;;;;;;;;;;;;;4923728;29;19947;-80
2023/04/05 19:40:12;;;;;;;;;;;;;;;;;;4899869;29;20014;-81
2023/04/05 19:42:37;;;;;;;;;;;;;;;;;;4926098;29;19916;-81
2023/04/05 19:45:03;;;;;;;;;;;;;;;;;;4903348;29;20028;-83
2023/04/05 19:47:28;;;;;;;;;;;;;;;;;;4922993;29;19919;-84
2023/04/05 19:49:59;;;;;;;;;;;;;;;;;;4906187;29;19915;-82
2023/04/05 19:52:24;;;;;;;;;;;;;;;;;;4865731;29;20376;-85
2023/04/05 19:54:50;;;;;;;;;;;;;;;;;;4881531;29;19915;-84
2023/04/05 19:57:18;;;;;;;;;;;;;;;;;;4878231;29;19985;-85
2023/04/05 19:59:43;;;;;;;;;;;;;;;;;;4878484;29;19955;-84
2023/04/05 20:02:09;;;;;;;;;;;;;;;;;;4911978;29;19962;-83
2023/04/05 20:04:37;;;;;;;;;;;;;;;;;;4900260;29;19923;-83
2023/04/05 20:07:03;;;;;;;;;;;;;;;;;;4901196;29;19919;-87
2023/04/05 20:09:29;;;;;;;;;;;;;;;;;;4913910;29;19919;-84
2023/04/05 20:11:54;;;;;;;;;;;;;;;;;;4919364;29;19974;-84
2023/04/05 20:14:20;;;;;;;;;;;;;;;;;;4881669;29;20358;-83
2023/04/05 20:16:48;;;;;;;;;;;;;;;;;;4894822;29;19915;-87
2023/04/05 20:19:13;;;;;;;;;;;;;;;;;;4920214;29;19998;-82